sensor_id;sensor_type;location;lat;lon;timestamp;temperature;humidity
10433;DHT22;5263;48.680;9.004;2023-04-30T00:02:14;10.50;99.90
10433;DHT22;5263;48.680;9.004;2023-04-30T00:04:39;10.80;99.90
10433;DHT22;5263;48.680;9.004;2023-04-30T00:07:05;10.60;99.90
10433;DHT22;5263;48.680;9.004;2023-04-30T00:09:31;10.70;99.90
10433;DHT22;5263;48.680;9.004;2023-04-30T00:11:56;10.60;99.90
10433;DHT22;5263;48.680;9.004;2023-04-30T00:14:22;10.50;99.90
10433;DHT22;5263;48.680;9.004;2023-04-30T00:16:47;10.40;99.90
10433;DHT22;5263;48.680;9.004;2023-04-30T00:19:13;10.40;99.90
10433;DHT22;5263;48.680;9.004;2023-04-30T00:21:38;10.60;99.90
10433;DHT22;5263;48.680;9.004;2023-04-30T00:24:04;10.70;99.90
10433;DHT22;5263;48.680;9.004;2023-04-30T00:26:30;10.60;99.90
10433;DHT22;5263;48.680;9.004;2023-04-30T00:28:55;10.50;99.90
10433;DHT22;5263;48.680;9.004;2023-04-30T00:31:21;10.60;99.90
10433;DHT22;5263;48.680;9.004;2023-04-30T00:33:47;10.80;99.90
10433;DHT22;5263;48.680;9.004;2023-04-30T00:36:12;10.60;99.90
10433;DHT22;5263;48.680;9.004;2023-04-30T00:38:38;10.60;99.90
10433;DHT22;5263;48.680;9.004;2023-04-30T00:41:04;10.40;99.90
10433;DHT22;5263;48.680;9.004;2023-04-30T00:43:30;10.40;99.90
10433;DHT22;5263;48.680;9.004;2023-04-30T00:45:56;10.40;99.90
10433;DHT22;5263;48.680;9.004;2023-04-30T00:48:23;10.20;99.90
10433;DHT22;5263;48.680;9.004;2023-04-30T00:50:49;10.40;99.90
10433;DHT22;5263;48.680;9.004;2023-04-30T00:53:15;10.10;99.90
10433;DHT22;5263;48.680;9.004;2023-04-30T00:55:42;10.10;99.90
10433;DHT22;5263;48.680;9.004;2023-04-30T00:58:08;10.20;99.90
10433;DHT22;5263;48.680;9.004;2023-04-30T01:00:34;10.20;99.90
10433;DHT22;5263;48.680;9.004;2023-04-30T01:03:00;10.10;99.90
10433;DHT22;5263;48.680;9.004;2023-04-30T01:05:25;10.10;99.90
10433;DHT22;5263;48.680;9.004;2023-04-30T01:07:52;10.10;99.90
10433;DHT22;5263;48.680;9.004;2023-04-30T01:10:19;10.10;99.90
10433;DHT22;5263;48.680;9.004;2023-04-30T01:18:28;10.10;99.90
10433;DHT22;5263;48.680;9.004;2023-04-30T01:21:01;10.10;99.90
10433;DHT22;5263;48.680;9.004;2023-04-30T01:26:12;9.90;99.90
10433;DHT22;5263;48.680;9.004;2023-04-30T01:28:39;9.90;99.90
10433;DHT22;5263;48.680;9.004;2023-04-30T01:31:14;9.70;99.90
10433;DHT22;5263;48.680;9.004;2023-04-30T01:33:40;9.70;99.90
10433;DHT22;5263;48.680;9.004;2023-04-30T01:37:05;9.70;99.90
10433;DHT22;5263;48.680;9.004;2023-04-30T01:41:39;9.80;99.90
10433;DHT22;5263;48.680;9.004;2023-04-30T01:47:19;10.00;99.90
10433;DHT22;5263;48.680;9.004;2023-04-30T01:52:21;9.80;99.90
10433;DHT22;5263;48.680;9.004;2023-04-30T01:54:53;9.80;99.90
10433;DHT22;5263;48.680;9.004;2023-04-30T01:57:51;9.60;99.90
10433;DHT22;5263;48.680;9.004;2023-04-30T02:00:13;9.60;99.90
10433;DHT22;5263;48.680;9.004;2023-04-30T02:02:39;9.60;99.90
10433;DHT22;5263;48.680;9.004;2023-04-30T02:05:05;9.60;99.90
10433;DHT22;5263;48.680;9.004;2023-04-30T02:10:03;9.60;99.90
10433;DHT22;5263;48.680;9.004;2023-04-30T02:12:29;9.70;99.90
10433;DHT22;5263;48.680;9.004;2023-04-30T02:14:55;9.70;99.90
10433;DHT22;5263;48.680;9.004;2023-04-30T02:17:20;9.80;99.90
10433;DHT22;5263;48.680;9.004;2023-04-30T02:19:46;9.70;99.90
10433;DHT22;5263;48.680;9.004;2023-04-30T02:22:11;9.60;99.90
10433;DHT22;5263;48.680;9.004;2023-04-30T02:24:37;9.60;99.90
10433;DHT22;5263;48.680;9.004;2023-04-30T02:27:03;9.60;99.90
10433;DHT22;5263;48.680;9.004;2023-04-30T02:29:28;9.60;99.90
10433;DHT22;5263;48.680;9.004;2023-04-30T02:31:57;9.50;99.90
10433;DHT22;5263;48.680;9.004;2023-04-30T02:34:23;9.60;99.90
10433;DHT22;5263;48.680;9.004;2023-04-30T02:36:48;9.60;99.90
10433;DHT22;5263;48.680;9.004;2023-04-30T02:39:14;9.50;99.90
10433;DHT22;5263;48.680;9.004;2023-04-30T02:41:40;9.50;99.90
10433;DHT22;5263;48.680;9.004;2023-04-30T02:44:05;9.50;99.90
10433;DHT22;5263;48.680;9.004;2023-04-30T02:46:31;9.50;99.90
10433;DHT22;5263;48.680;9.004;2023-04-30T02:48:57;9.40;99.90
10433;DHT22;5263;48.680;9.004;2023-04-30T02:51:22;9.50;99.90
10433;DHT22;5263;48.680;9.004;2023-04-30T02:53:48;9.40;99.90
10433;DHT22;5263;48.680;9.004;2023-04-30T02:56:14;9.50;99.90
10433;DHT22;5263;48.680;9.004;2023-04-30T02:58:39;9.60;99.90
10433;DHT22;5263;48.680;9.004;2023-04-30T03:01:05;9.60;99.90
10433;DHT22;5263;48.680;9.004;2023-04-30T03:03:31;9.50;99.90
10433;DHT22;5263;48.680;9.004;2023-04-30T03:05:56;9.70;99.90
10433;DHT22;5263;48.680;9.004;2023-04-30T03:08:26;9.80;99.90
10433;DHT22;5263;48.680;9.004;2023-04-30T03:10:52;9.90;99.90
10433;DHT22;5263;48.680;9.004;2023-04-30T03:13:17;9.80;99.90
10433;DHT22;5263;48.680;9.004;2023-04-30T03:15:43;9.60;99.90
10433;DHT22;5263;48.680;9.004;2023-04-30T03:18:09;9.40;99.90
10433;DHT22;5263;48.680;9.004;2023-04-30T03:20:35;9.30;99.90
10433;DHT22;5263;48.680;9.004;2023-04-30T03:23:01;9.40;99.90
10433;DHT22;5263;48.680;9.004;2023-04-30T03:25:26;9.30;99.90
10433;DHT22;5263;48.680;9.004;2023-04-30T03:27:52;9.10;99.90
10433;DHT22;5263;48.680;9.004;2023-04-30T03:30:18;9.50;99.90
10433;DHT22;5263;48.680;9.004;2023-04-30T03:32:43;9.50;99.90
10433;DHT22;5263;48.680;9.004;2023-04-30T03:35:09;9.60;99.90
10433;DHT22;5263;48.680;9.004;2023-04-30T03:37:35;9.50;99.90
10433;DHT22;5263;48.680;9.004;2023-04-30T03:40:00;9.50;99.90
10433;DHT22;5263;48.680;9.004;2023-04-30T03:42:26;9.30;99.90
10433;DHT22;5263;48.680;9.004;2023-04-30T03:44:52;9.50;99.90
10433;DHT22;5263;48.680;9.004;2023-04-30T03:47:17;9.30;99.90
10433;DHT22;5263;48.680;9.004;2023-04-30T03:49:43;9.20;99.90
10433;DHT22;5263;48.680;9.004;2023-04-30T03:52:08;9.30;99.90
10433;DHT22;5263;48.680;9.004;2023-04-30T03:54:34;9.30;99.90
10433;DHT22;5263;48.680;9.004;2023-04-30T03:57:00;9.10;99.90
10433;DHT22;5263;48.680;9.004;2023-04-30T03:59:29;9.30;99.90
10433;DHT22;5263;48.680;9.004;2023-04-30T04:01:55;9.50;99.90
10433;DHT22;5263;48.680;9.004;2023-04-30T04:04:21;9.40;99.90
10433;DHT22;5263;48.680;9.004;2023-04-30T04:06:47;9.60;99.90
10433;DHT22;5263;48.680;9.004;2023-04-30T04:09:12;9.60;99.90
10433;DHT22;5263;48.680;9.004;2023-04-30T04:11:38;9.60;99.90
10433;DHT22;5263;48.680;9.004;2023-04-30T04:14:04;9.60;99.90
10433;DHT22;5263;48.680;9.004;2023-04-30T04:16:29;9.60;99.90
10433;DHT22;5263;48.680;9.004;2023-04-30T04:18:55;9.60;99.90
10433;DHT22;5263;48.680;9.004;2023-04-30T04:21:20;9.50;99.90
10433;DHT22;5263;48.680;9.004;2023-04-30T04:23:46;9.50;99.90
10433;DHT22;5263;48.680;9.004;2023-04-30T04:26:12;9.70;99.90
10433;DHT22;5263;48.680;9.004;2023-04-30T04:28:37;9.70;99.90
10433;DHT22;5263;48.680;9.004;2023-04-30T04:31:03;9.70;99.90
10433;DHT22;5263;48.680;9.004;2023-04-30T04:33:29;9.60;99.90
10433;DHT22;5263;48.680;9.004;2023-04-30T04:35:55;9.50;99.90
10433;DHT22;5263;48.680;9.004;2023-04-30T04:38:21;9.40;99.90
10433;DHT22;5263;48.680;9.004;2023-04-30T04:40:51;9.20;99.90
10433;DHT22;5263;48.680;9.004;2023-04-30T04:43:17;9.20;99.90
10433;DHT22;5263;48.680;9.004;2023-04-30T04:45:43;9.10;99.90
10433;DHT22;5263;48.680;9.004;2023-04-30T04:48:08;9.10;99.90
10433;DHT22;5263;48.680;9.004;2023-04-30T04:50:34;9.20;99.90
10433;DHT22;5263;48.680;9.004;2023-04-30T04:53:00;9.30;99.90
10433;DHT22;5263;48.680;9.004;2023-04-30T04:55:26;9.40;99.90
10433;DHT22;5263;48.680;9.004;2023-04-30T04:57:51;9.50;99.90
10433;DHT22;5263;48.680;9.004;2023-04-30T05:00:17;9.40;99.90
10433;DHT22;5263;48.680;9.004;2023-04-30T05:02:43;9.30;99.90
10433;DHT22;5263;48.680;9.004;2023-04-30T05:05:09;9.50;99.90
10433;DHT22;5263;48.680;9.004;2023-04-30T05:07:35;9.70;99.90
10433;DHT22;5263;48.680;9.004;2023-04-30T05:10:01;9.70;99.90
10433;DHT22;5263;48.680;9.004;2023-04-30T05:12:27;9.40;99.90
10433;DHT22;5263;48.680;9.004;2023-04-30T05:14:52;9.60;99.90
10433;DHT22;5263;48.680;9.004;2023-04-30T05:17:18;10.10;99.90
10433;DHT22;5263;48.680;9.004;2023-04-30T05:19:43;10.10;99.90
10433;DHT22;5263;48.680;9.004;2023-04-30T05:22:12;10.40;99.90
10433;DHT22;5263;48.680;9.004;2023-04-30T05:24:37;10.60;99.90
10433;DHT22;5263;48.680;9.004;2023-04-30T05:27:03;11.00;99.90
10433;DHT22;5263;48.680;9.004;2023-04-30T05:29:29;10.80;99.90
10433;DHT22;5263;48.680;9.004;2023-04-30T05:31:56;11.00;99.90
10433;DHT22;5263;48.680;9.004;2023-04-30T05:34:21;10.80;99.90
10433;DHT22;5263;48.680;9.004;2023-04-30T05:36:47;11.00;99.90
10433;DHT22;5263;48.680;9.004;2023-04-30T05:39:13;11.00;99.90
10433;DHT22;5263;48.680;9.004;2023-04-30T05:41:38;10.80;99.90
10433;DHT22;5263;48.680;9.004;2023-04-30T05:44:04;11.10;99.90
10433;DHT22;5263;48.680;9.004;2023-04-30T05:46:31;11.20;99.90
10433;DHT22;5263;48.680;9.004;2023-04-30T05:48:56;11.50;99.90
10433;DHT22;5263;48.680;9.004;2023-04-30T05:51:22;11.60;99.90
10433;DHT22;5263;48.680;9.004;2023-04-30T05:53:48;11.40;99.90
10433;DHT22;5263;48.680;9.004;2023-04-30T05:56:13;10.90;99.90
10433;DHT22;5263;48.680;9.004;2023-04-30T05:58:39;10.80;99.90
10433;DHT22;5263;48.680;9.004;2023-04-30T06:01:05;10.80;99.90
10433;DHT22;5263;48.680;9.004;2023-04-30T06:03:30;10.80;99.90
10433;DHT22;5263;48.680;9.004;2023-04-30T06:05:56;10.60;99.90
10433;DHT22;5263;48.680;9.004;2023-04-30T06:08:22;10.70;99.90
10433;DHT22;5263;48.680;9.004;2023-04-30T06:10:48;10.70;99.90
10433;DHT22;5263;48.680;9.004;2023-04-30T06:13:15;10.90;99.90
10433;DHT22;5263;48.680;9.004;2023-04-30T06:15:40;10.70;99.90
10433;DHT22;5263;48.680;9.004;2023-04-30T06:18:06;10.80;99.90
10433;DHT22;5263;48.680;9.004;2023-04-30T06:20:32;10.70;99.90
10433;DHT22;5263;48.680;9.004;2023-04-30T06:22:57;11.10;99.90
10433;DHT22;5263;48.680;9.004;2023-04-30T06:25:24;11.00;99.90
10433;DHT22;5263;48.680;9.004;2023-04-30T06:27:50;11.20;99.90
10433;DHT22;5263;48.680;9.004;2023-04-30T06:30:18;11.60;99.90
10433;DHT22;5263;48.680;9.004;2023-04-30T06:32:44;11.70;99.90
10433;DHT22;5263;48.680;9.004;2023-04-30T06:35:10;12.00;99.90
10433;DHT22;5263;48.680;9.004;2023-04-30T06:37:35;11.90;99.90
10433;DHT22;5263;48.680;9.004;2023-04-30T06:40:03;12.00;99.90
10433;DHT22;5263;48.680;9.004;2023-04-30T06:42:30;11.80;99.90
10433;DHT22;5263;48.680;9.004;2023-04-30T06:45:00;11.40;99.90
10433;DHT22;5263;48.680;9.004;2023-04-30T06:47:31;11.30;99.90
10433;DHT22;5263;48.680;9.004;2023-04-30T06:50:01;11.60;99.90
10433;DHT22;5263;48.680;9.004;2023-04-30T06:52:27;12.00;99.90
10433;DHT22;5263;48.680;9.004;2023-04-30T06:54:52;12.00;99.90
10433;DHT22;5263;48.680;9.004;2023-04-30T06:57:18;12.20;99.90
10433;DHT22;5263;48.680;9.004;2023-04-30T06:59:44;12.50;99.90
10433;DHT22;5263;48.680;9.004;2023-04-30T07:02:09;12.50;99.90
10433;DHT22;5263;48.680;9.004;2023-04-30T07:04:35;12.20;99.90
10433;DHT22;5263;48.680;9.004;2023-04-30T07:07:00;12.10;99.90
10433;DHT22;5263;48.680;9.004;2023-04-30T07:09:30;12.10;99.90
10433;DHT22;5263;48.680;9.004;2023-04-30T07:11:56;12.30;99.90
10433;DHT22;5263;48.680;9.004;2023-04-30T07:14:23;12.60;99.90
10433;DHT22;5263;48.680;9.004;2023-04-30T07:16:49;12.70;99.90
10433;DHT22;5263;48.680;9.004;2023-04-30T07:19:15;13.10;99.90
10433;DHT22;5263;48.680;9.004;2023-04-30T07:21:40;13.20;99.90
10433;DHT22;5263;48.680;9.004;2023-04-30T07:24:06;13.30;99.90
10433;DHT22;5263;48.680;9.004;2023-04-30T07:26:32;13.20;99.90
10433;DHT22;5263;48.680;9.004;2023-04-30T07:28:57;13.30;99.90
10433;DHT22;5263;48.680;9.004;2023-04-30T07:31:23;13.20;99.90
10433;DHT22;5263;48.680;9.004;2023-04-30T07:33:50;12.40;99.90
10433;DHT22;5263;48.680;9.004;2023-04-30T07:36:16;12.20;99.90
10433;DHT22;5263;48.680;9.004;2023-04-30T07:38:42;12.60;99.90
10433;DHT22;5263;48.680;9.004;2023-04-30T07:41:08;12.50;99.90
10433;DHT22;5263;48.680;9.004;2023-04-30T07:43:34;12.90;99.90
10433;DHT22;5263;48.680;9.004;2023-04-30T07:46:00;13.30;99.90
10433;DHT22;5263;48.680;9.004;2023-04-30T07:48:26;13.70;99.90
10433;DHT22;5263;48.680;9.004;2023-04-30T07:50:52;13.80;99.90
10433;DHT22;5263;48.680;9.004;2023-04-30T07:53:17;13.60;99.90
10433;DHT22;5263;48.680;9.004;2023-04-30T07:55:43;13.90;99.90
10433;DHT22;5263;48.680;9.004;2023-04-30T07:58:09;13.60;99.90
10433;DHT22;5263;48.680;9.004;2023-04-30T08:00:34;13.40;99.90
10433;DHT22;5263;48.680;9.004;2023-04-30T08:03:00;13.30;99.90
10433;DHT22;5263;48.680;9.004;2023-04-30T08:05:26;13.60;99.90
10433;DHT22;5263;48.680;9.004;2023-04-30T08:07:52;13.80;99.90
10433;DHT22;5263;48.680;9.004;2023-04-30T08:10:18;13.90;99.90
10433;DHT22;5263;48.680;9.004;2023-04-30T08:12:43;14.40;99.90
10433;DHT22;5263;48.680;9.004;2023-04-30T08:15:09;13.90;99.90
10433;DHT22;5263;48.680;9.004;2023-04-30T08:17:35;14.30;99.90
10433;DHT22;5263;48.680;9.004;2023-04-30T08:20:02;14.40;99.90
10433;DHT22;5263;48.680;9.004;2023-04-30T08:22:28;14.80;99.90
10433;DHT22;5263;48.680;9.004;2023-04-30T08:24:54;14.50;99.90
10433;DHT22;5263;48.680;9.004;2023-04-30T08:27:21;15.00;99.90
10433;DHT22;5263;48.680;9.004;2023-04-30T08:29:46;14.50;99.90
10433;DHT22;5263;48.680;9.004;2023-04-30T08:32:12;14.20;99.90
10433;DHT22;5263;48.680;9.004;2023-04-30T08:34:38;14.20;99.90
10433;DHT22;5263;48.680;9.004;2023-04-30T08:37:07;14.60;99.90
10433;DHT22;5263;48.680;9.004;2023-04-30T08:39:33;14.90;99.90
10433;DHT22;5263;48.680;9.004;2023-04-30T08:42:01;15.20;99.90
10433;DHT22;5263;48.680;9.004;2023-04-30T08:44:29;15.20;99.90
10433;DHT22;5263;48.680;9.004;2023-04-30T08:46:56;15.20;99.90
10433;DHT22;5263;48.680;9.004;2023-04-30T08:49:24;14.70;99.90
10433;DHT22;5263;48.680;9.004;2023-04-30T08:51:50;14.30;99.90
10433;DHT22;5263;48.680;9.004;2023-04-30T08:54:17;14.40;99.90
10433;DHT22;5263;48.680;9.004;2023-04-30T08:56:44;14.90;99.90
10433;DHT22;5263;48.680;9.004;2023-04-30T08:59:11;15.20;99.90
10433;DHT22;5263;48.680;9.004;2023-04-30T09:01:37;15.60;99.90
10433;DHT22;5263;48.680;9.004;2023-04-30T09:04:03;15.70;99.90
10433;DHT22;5263;48.680;9.004;2023-04-30T09:06:29;15.50;99.90
10433;DHT22;5263;48.680;9.004;2023-04-30T09:08:56;14.90;99.90
10433;DHT22;5263;48.680;9.004;2023-04-30T09:11:29;15.00;99.90
10433;DHT22;5263;48.680;9.004;2023-04-30T09:13:57;15.10;99.90
10433;DHT22;5263;48.680;9.004;2023-04-30T09:16:25;15.20;99.90
10433;DHT22;5263;48.680;9.004;2023-04-30T09:18:51;14.80;99.90
10433;DHT22;5263;48.680;9.004;2023-04-30T09:21:28;14.90;99.90
10433;DHT22;5263;48.680;9.004;2023-04-30T09:23:57;14.60;99.90
10433;DHT22;5263;48.680;9.004;2023-04-30T09:26:37;14.50;99.90
10433;DHT22;5263;48.680;9.004;2023-04-30T09:29:03;14.50;99.90
10433;DHT22;5263;48.680;9.004;2023-04-30T09:31:37;14.80;99.90
10433;DHT22;5263;48.680;9.004;2023-04-30T09:34:03;15.10;99.90
10433;DHT22;5263;48.680;9.004;2023-04-30T09:36:29;15.20;99.90
10433;DHT22;5263;48.680;9.004;2023-04-30T09:39:04;15.40;99.90
10433;DHT22;5263;48.680;9.004;2023-04-30T09:41:30;15.40;99.90
10433;DHT22;5263;48.680;9.004;2023-04-30T09:43:56;14.90;99.90
10433;DHT22;5263;48.680;9.004;2023-04-30T09:46:30;14.20;99.90
10433;DHT22;5263;48.680;9.004;2023-04-30T09:48:59;14.20;99.90
10433;DHT22;5263;48.680;9.004;2023-04-30T09:51:25;14.40;99.90
10433;DHT22;5263;48.680;9.004;2023-04-30T09:53:51;14.90;99.90
10433;DHT22;5263;48.680;9.004;2023-04-30T09:56:25;15.10;99.90
10433;DHT22;5263;48.680;9.004;2023-04-30T09:58:55;15.40;99.90
10433;DHT22;5263;48.680;9.004;2023-04-30T10:01:24;15.70;99.90
10433;DHT22;5263;48.680;9.004;2023-04-30T10:03:51;16.00;99.90
10433;DHT22;5263;48.680;9.004;2023-04-30T10:06:18;15.80;99.90
10433;DHT22;5263;48.680;9.004;2023-04-30T10:08:52;15.50;99.90
10433;DHT22;5263;48.680;9.004;2023-04-30T10:11:19;15.60;99.90
10433;DHT22;5263;48.680;9.004;2023-04-30T10:13:50;15.50;99.90
10433;DHT22;5263;48.680;9.004;2023-04-30T10:16:39;15.70;99.90
10433;DHT22;5263;48.680;9.004;2023-04-30T10:19:13;15.90;99.90
10433;DHT22;5263;48.680;9.004;2023-04-30T10:21:41;16.20;99.90
10433;DHT22;5263;48.680;9.004;2023-04-30T10:24:09;16.30;99.90
10433;DHT22;5263;48.680;9.004;2023-04-30T10:26:36;15.90;99.90
10433;DHT22;5263;48.680;9.004;2023-04-30T10:29:03;16.00;99.90
10433;DHT22;5263;48.680;9.004;2023-04-30T10:31:30;16.50;99.90
10433;DHT22;5263;48.680;9.004;2023-04-30T10:34:09;16.70;99.90
10433;DHT22;5263;48.680;9.004;2023-04-30T10:36:42;16.40;99.90
10433;DHT22;5263;48.680;9.004;2023-04-30T10:39:10;16.40;99.90
10433;DHT22;5263;48.680;9.004;2023-04-30T10:41:37;16.70;99.90
10433;DHT22;5263;48.680;9.004;2023-04-30T10:44:03;16.70;99.90
10433;DHT22;5263;48.680;9.004;2023-04-30T10:46:34;16.60;99.90
10433;DHT22;5263;48.680;9.004;2023-04-30T10:49:00;16.50;99.90
10433;DHT22;5263;48.680;9.004;2023-04-30T10:51:49;16.40;99.90
10433;DHT22;5263;48.680;9.004;2023-04-30T10:54:27;16.10;99.90
10433;DHT22;5263;48.680;9.004;2023-04-30T10:57:27;16.60;99.90
10433;DHT22;5263;48.680;9.004;2023-04-30T11:02:15;16.10;99.90
10433;DHT22;5263;48.680;9.004;2023-04-30T11:07:36;15.20;99.90
10433;DHT22;5263;48.680;9.004;2023-04-30T11:10:01;15.80;99.90
10433;DHT22;5263;48.680;9.004;2023-04-30T11:12:27;16.10;99.90
10433;DHT22;5263;48.680;9.004;2023-04-30T11:15:12;16.10;99.90
10433;DHT22;5263;48.680;9.004;2023-04-30T11:17:38;16.60;99.90
10433;DHT22;5263;48.680;9.004;2023-04-30T11:20:04;16.50;99.90
10433;DHT22;5263;48.680;9.004;2023-04-30T11:22:30;16.40;99.90
10433;DHT22;5263;48.680;9.004;2023-04-30T11:25:04;16.70;99.90
10433;DHT22;5263;48.680;9.004;2023-04-30T11:27:32;16.80;99.90
10433;DHT22;5263;48.680;9.004;2023-04-30T11:29:58;16.70;99.90
10433;DHT22;5263;48.680;9.004;2023-04-30T11:32:27;17.10;99.90
10433;DHT22;5263;48.680;9.004;2023-04-30T11:34:56;17.00;99.90
10433;DHT22;5263;48.680;9.004;2023-04-30T11:37:39;16.80;99.90
10433;DHT22;5263;48.680;9.004;2023-04-30T11:40:09;16.30;99.90
10433;DHT22;5263;48.680;9.004;2023-04-30T11:42:42;16.80;99.90
10433;DHT22;5263;48.680;9.004;2023-04-30T11:45:10;16.80;99.90
10433;DHT22;5263;48.680;9.004;2023-04-30T11:47:44;17.30;99.90
10433;DHT22;5263;48.680;9.004;2023-04-30T11:50:12;17.40;99.90
10433;DHT22;5263;48.680;9.004;2023-04-30T11:52:39;18.00;99.90
10433;DHT22;5263;48.680;9.004;2023-04-30T11:55:16;17.90;99.60
10433;DHT22;5263;48.680;9.004;2023-04-30T11:57:43;16.90;99.90
10433;DHT22;5263;48.680;9.004;2023-04-30T12:00:13;16.70;99.90
10433;DHT22;5263;48.680;9.004;2023-04-30T12:02:41;16.60;99.90
10433;DHT22;5263;48.680;9.004;2023-04-30T12:07:47;16.40;99.90
10433;DHT22;5263;48.680;9.004;2023-04-30T12:10:13;16.10;99.90
10433;DHT22;5263;48.680;9.004;2023-04-30T12:12:39;16.50;99.90
10433;DHT22;5263;48.680;9.004;2023-04-30T12:15:20;16.40;99.90
10433;DHT22;5263;48.680;9.004;2023-04-30T12:17:55;17.00;99.90
10433;DHT22;5263;48.680;9.004;2023-04-30T12:20:22;17.80;99.90
10433;DHT22;5263;48.680;9.004;2023-04-30T12:22:49;18.10;99.60
10433;DHT22;5263;48.680;9.004;2023-04-30T12:25:16;18.10;99.90
10433;DHT22;5263;48.680;9.004;2023-04-30T12:27:53;18.60;99.90
10433;DHT22;5263;48.680;9.004;2023-04-30T12:30:20;17.90;99.90
10433;DHT22;5263;48.680;9.004;2023-04-30T12:32:49;18.00;99.50
10433;DHT22;5263;48.680;9.004;2023-04-30T12:35:17;17.90;99.20
10433;DHT22;5263;48.680;9.004;2023-04-30T12:37:54;18.30;99.80
10433;DHT22;5263;48.680;9.004;2023-04-30T12:40:26;18.20;98.30
10433;DHT22;5263;48.680;9.004;2023-04-30T12:43:02;18.30;98.30
10433;DHT22;5263;48.680;9.004;2023-04-30T12:45:51;18.50;98.60
10433;DHT22;5263;48.680;9.004;2023-04-30T12:48:18;17.10;98.20
10433;DHT22;5263;48.680;9.004;2023-04-30T12:50:59;18.30;97.80
10433;DHT22;5263;48.680;9.004;2023-04-30T12:53:26;18.60;99.20
10433;DHT22;5263;48.680;9.004;2023-04-30T12:56:15;19.20;97.30
10433;DHT22;5263;48.680;9.004;2023-04-30T12:58:45;19.60;95.80
10433;DHT22;5263;48.680;9.004;2023-04-30T13:01:12;20.20;94.10
10433;DHT22;5263;48.680;9.004;2023-04-30T13:03:39;20.20;93.90
10433;DHT22;5263;48.680;9.004;2023-04-30T13:06:05;18.60;95.50
10433;DHT22;5263;48.680;9.004;2023-04-30T13:08:31;19.40;94.50
10433;DHT22;5263;48.680;9.004;2023-04-30T13:10:57;18.80;95.60
10433;DHT22;5263;48.680;9.004;2023-04-30T13:13:23;19.00;96.50
10433;DHT22;5263;48.680;9.004;2023-04-30T13:15:48;18.60;97.40
10433;DHT22;5263;48.680;9.004;2023-04-30T13:18:14;18.90;96.30
10433;DHT22;5263;48.680;9.004;2023-04-30T13:20:41;19.30;96.50
10433;DHT22;5263;48.680;9.004;2023-04-30T13:23:08;19.30;94.60
10433;DHT22;5263;48.680;9.004;2023-04-30T13:25:34;19.60;94.50
10433;DHT22;5263;48.680;9.004;2023-04-30T13:28:00;17.60;95.60
10433;DHT22;5263;48.680;9.004;2023-04-30T13:30:26;17.60;97.80
10433;DHT22;5263;48.680;9.004;2023-04-30T13:32:51;17.50;97.40
10433;DHT22;5263;48.680;9.004;2023-04-30T13:35:18;18.60;97.20
10433;DHT22;5263;48.680;9.004;2023-04-30T13:37:44;19.00;96.30
10433;DHT22;5263;48.680;9.004;2023-04-30T13:40:10;19.30;96.00
10433;DHT22;5263;48.680;9.004;2023-04-30T13:42:37;19.40;96.10
10433;DHT22;5263;48.680;9.004;2023-04-30T13:45:05;19.60;94.20
10433;DHT22;5263;48.680;9.004;2023-04-30T13:47:31;18.80;94.40
10433;DHT22;5263;48.680;9.004;2023-04-30T13:49:56;19.40;95.30
10433;DHT22;5263;48.680;9.004;2023-04-30T13:52:22;20.50;93.70
10433;DHT22;5263;48.680;9.004;2023-04-30T13:54:48;20.40;92.30
10433;DHT22;5263;48.680;9.004;2023-04-30T13:57:14;19.00;94.10
10433;DHT22;5263;48.680;9.004;2023-04-30T13:59:39;17.80;95.50
10433;DHT22;5263;48.680;9.004;2023-04-30T14:02:05;17.90;96.70
10433;DHT22;5263;48.680;9.004;2023-04-30T14:04:31;16.80;99.10
10433;DHT22;5263;48.680;9.004;2023-04-30T14:06:57;17.20;98.90
10433;DHT22;5263;48.680;9.004;2023-04-30T14:09:23;16.80;98.50
10433;DHT22;5263;48.680;9.004;2023-04-30T14:11:48;16.70;99.10
10433;DHT22;5263;48.680;9.004;2023-04-30T14:14:14;17.20;99.10
10433;DHT22;5263;48.680;9.004;2023-04-30T14:16:40;17.60;98.60
10433;DHT22;5263;48.680;9.004;2023-04-30T14:19:06;18.40;97.70
10433;DHT22;5263;48.680;9.004;2023-04-30T14:21:32;19.00;96.60
10433;DHT22;5263;48.680;9.004;2023-04-30T14:23:58;19.40;94.70
10433;DHT22;5263;48.680;9.004;2023-04-30T14:26:24;19.60;94.70
10433;DHT22;5263;48.680;9.004;2023-04-30T14:28:50;19.80;95.30
10433;DHT22;5263;48.680;9.004;2023-04-30T14:31:15;19.70;94.80
10433;DHT22;5263;48.680;9.004;2023-04-30T14:33:41;19.90;93.80
10433;DHT22;5263;48.680;9.004;2023-04-30T14:36:07;19.70;93.20
10433;DHT22;5263;48.680;9.004;2023-04-30T14:38:33;20.80;93.50
10433;DHT22;5263;48.680;9.004;2023-04-30T14:40:58;20.80;92.00
10433;DHT22;5263;48.680;9.004;2023-04-30T14:43:24;20.90;90.80
10433;DHT22;5263;48.680;9.004;2023-04-30T14:45:50;20.00;94.20
10433;DHT22;5263;48.680;9.004;2023-04-30T14:48:16;21.20;91.90
10433;DHT22;5263;48.680;9.004;2023-04-30T14:50:43;21.90;91.90
10433;DHT22;5263;48.680;9.004;2023-04-30T14:53:08;21.90;90.20
10433;DHT22;5263;48.680;9.004;2023-04-30T14:55:36;21.10;90.40
10433;DHT22;5263;48.680;9.004;2023-04-30T14:58:01;20.60;90.90
10433;DHT22;5263;48.680;9.004;2023-04-30T15:00:27;20.30;91.80
10433;DHT22;5263;48.680;9.004;2023-04-30T15:02:53;20.50;90.60
10433;DHT22;5263;48.680;9.004;2023-04-30T15:05:19;20.40;90.90
10433;DHT22;5263;48.680;9.004;2023-04-30T15:07:45;20.70;90.10
10433;DHT22;5263;48.680;9.004;2023-04-30T15:10:11;19.10;90.20
10433;DHT22;5263;48.680;9.004;2023-04-30T15:12:37;17.10;92.90
10433;DHT22;5263;48.680;9.004;2023-04-30T15:15:04;17.50;95.30
10433;DHT22;5263;48.680;9.004;2023-04-30T15:17:30;17.20;94.90
10433;DHT22;5263;48.680;9.004;2023-04-30T15:19:59;17.30;95.40
10433;DHT22;5263;48.680;9.004;2023-04-30T15:22:26;17.60;95.00
10433;DHT22;5263;48.680;9.004;2023-04-30T15:24:52;18.10;94.70
10433;DHT22;5263;48.680;9.004;2023-04-30T15:27:18;18.20;94.70
10433;DHT22;5263;48.680;9.004;2023-04-30T15:29:43;17.80;94.40
10433;DHT22;5263;48.680;9.004;2023-04-30T15:32:11;18.10;94.60
10433;DHT22;5263;48.680;9.004;2023-04-30T15:34:37;18.10;93.90
10433;DHT22;5263;48.680;9.004;2023-04-30T15:37:03;17.30;93.80
10433;DHT22;5263;48.680;9.004;2023-04-30T15:39:29;17.30;94.50
10433;DHT22;5263;48.680;9.004;2023-04-30T15:41:54;17.30;95.20
10433;DHT22;5263;48.680;9.004;2023-04-30T15:44:20;17.20;95.00
10433;DHT22;5263;48.680;9.004;2023-04-30T15:46:46;17.60;94.90
10433;DHT22;5263;48.680;9.004;2023-04-30T15:49:11;17.20;95.40
10433;DHT22;5263;48.680;9.004;2023-04-30T15:51:37;17.10;95.20
10433;DHT22;5263;48.680;9.004;2023-04-30T15:54:03;17.40;95.00
10433;DHT22;5263;48.680;9.004;2023-04-30T15:56:34;17.70;95.50
10433;DHT22;5263;48.680;9.004;2023-04-30T15:59:00;17.30;94.80
10433;DHT22;5263;48.680;9.004;2023-04-30T16:01:25;16.70;95.90
10433;DHT22;5263;48.680;9.004;2023-04-30T16:03:51;17.00;95.60
10433;DHT22;5263;48.680;9.004;2023-04-30T16:06:17;16.80;95.40
10433;DHT22;5263;48.680;9.004;2023-04-30T16:08:43;16.30;95.60
10433;DHT22;5263;48.680;9.004;2023-04-30T16:11:10;16.10;96.80
10433;DHT22;5263;48.680;9.004;2023-04-30T16:13:36;15.80;96.80
10433;DHT22;5263;48.680;9.004;2023-04-30T16:16:02;16.10;97.00
10433;DHT22;5263;48.680;9.004;2023-04-30T16:18:27;16.30;97.40